KSNK

Winston Field Airport

Snyder, Texas, USA
METAR KSNK 230455Z AUTO 18005KT 10SM OVC070 13/11 A3017 RMK AO2 T01340113
Observed Flight Rules
Oct-23 @ 04:55 UTC (23 minutes ago) Visual Flight Rules
Wind Visibility Clouds
180° at 5 knots 10 miles
  • Overcast at 7,000' AGL
Temperatures Readings
Current 13°C / 55°F
Dewpoint 11°C / 52°F
Humidity 88%
Altimeter 30.17" Hg
Pressure 1022 hPa
Elevation 741
METAR KSNK 230455Z AUTO 18005KT 10SM OVC070 13/11 A3017 RMK AO2 T01340113
Observed Flight Rules
Oct-23 @ 04:55 UTC
(23 minutes ago)
VFR
Wind Visibility
180° at 5 knots 10 miles
Clouds
  • Overcast at 7,000' AGL
Temperature Dewpoint
13°C / 55°F 11°C / 52°F
Humidity Altimeter Pressure
88% 30.17" Hg 1022 hPa